Tiempo atmosférico en la estación meteorológica de Taramundi, Ouria, Asturias (335 m.)



Fecha
DESCASC
Temp. máxima en grados centígrados (hora)
DESCASC
Temp. mínima en grados centígrados (hora)
DESCASC
Temp. media en grados centígrados
DESCASC
Racha de viento máxima en m/sg (hora)
DESCASC
Velocidad máxima media en intervalos de 10 minutos(hora)
DESCASC
Precipitaciones diarias en mm
DESCASC
Precipitaciones de 00:00 a 06:00 en mm
DESCASC
Precipitaciones de 06:00 a 12:00 en mm
DESCASC
Precipitaciones de 12:00 a 18:00 en mm
DESCASC
Precipitaciones de 18:00 a 24:00 en mm
DESCASC
14-01-2020 15.1 (15:40) 12.3 (00:00) 13.7 33.33 (09:50) 20.83 (09:40) 0 0 0 0 0
29-12-2019 19.1 (15:40) 9.7 (00:00) 14.4 6.39 (02:20) 4.17 (06:50) 0 0 0 0 0
21-12-2019 15.7 (09:10) 9.6 (00:00) 12.7 34.17 (18:20) 18.06 (18:30) 17.6 0 6.6 4.8 6.2
24-12-2019 19.2 (15:40) 9.6 (00:00) 14.4 18.89 (03:00) 11.11 (08:00) 0 0 0 0 0
08-01-2020 17.3 (15:00) 9.4 (00:00) 13.3 12.5 (23:00) 6.67 (22:50) 0 0 0 0 0
23-12-2019 15.4 (23:00) 9.2 (00:00) 12.3 19.17 (13:00) 11.94 (12:00) 0 0 0 0 0
22-12-2019 12.7 (11:30) 9 (00:00) 10.8 24.72 (10:40) 15.83 (10:40) 3.2 1.4 1 0.4 0.4
25-12-2019 19.2 (19:30) 8.9 (00:00) 14.1 20.28 (21:10) 12.5 (20:00) 0 0 0 0 0
03-01-2020 13.2 (15:00) 8.1 (00:00) 10.7 15 (00:30) 10.28 (00:30) 1 0 0 0.2 0.8
13-01-2020 14.3 (16:00) 7.9 (00:00) 11.1 31.11 (22:00) 17.22 (23:50) 0 0 0 0 0
16-01-2020 17.4 (13:10) 7.6 (00:00) 12.5 29.17 (07:20) 17.5 (12:20) 15.8 0 0 2.6 13.2
19-12-2019 13.7 (03:00) 7.4 (23:40) 10.5 30 (05:00) 15.28 (17:10) 27.6 10.4 3.4 1.6 12.2
09-01-2020 15.1 (11:40) 7.3 (00:00) 11.2 22.5 (11:10) 13.89 (11:10) 2.8 0 0 2.8 0
15-01-2020 14.2 (04:20) 6.5 (00:00) 10.3 31.11 (04:00) 18.06 (01:10) 11.6 3.6 8 0 0
20-12-2019 10.3 (14:30) 5.9 (00:00) 8.1 19.44 (11:50) 11.11 (13:30) 8.4 2.8 0 1.8 3.8
17-01-2020 10.4 (14:20) 5.6 (00:00) 8 13.89 (07:20) 8.06 (01:00) 2.2 0.8 1.4 0 0
07-01-2020 15 (15:40) 5.1 (00:00) 10 9.17 (08:10) 5.83 (08:10) 0 0 0 0 0
31-12-2019 11.7 (14:00) 5.1 (00:00) 8.4 6.39 (11:20) 4.17 (11:00) 0 0 0 0 0
12-01-2020 15.5 (16:00) 4.8 (00:00) 10.2 12.78 (01:30) 9.44 (00:40) 0 0 0 0 0
26-12-2019 14.2 (14:50) 4.8 (00:00) 9.5 17.22 (00:40) 11.11 (00:10) 0 0 0 0 0
02-01-2020 12.1 (13:30) 4.6 (00:00) 8.4 16.11 (22:30) 9.17 (20:10) 0 0 0 0 0
04-01-2020 9.8 (15:10) 4.6 (00:00) 7.2 5.56 (13:50) 3.89 (13:50) 0 0 0 0 0
10-01-2020 9.7 (15:20) 4 (00:00) 6.8 5.83 (15:30) 3.61 (15:40) 1.4 1.2 0.2 0 0
28-12-2019 16.2 (15:30) 3.6 (00:00) 9.9 8.33 (06:10) 5 (06:00) 0 0 0 0 0
27-12-2019 12.6 (15:20) 3.2 (00:00) 7.9 8.33 (11:00) 5 (11:00) 0 0 0 0 0
11-01-2020 13.1 (16:00) 3.1 (00:00) 8.1 8.89 (23:59) 5.28 (23:59) 0 0 0 0 0
05-01-2020 10.9 (15:20) 2.6 (00:00) 6.7 6.67 (11:40) 4.72 (11:40) 0.2 0.2 0 0 0
06-01-2020 13.2 (15:30) 2.5 (00:00) 7.8 15.83 (14:10) 10.83 (14:10) 0 0 0 0 0
01-01-2020 10.2 (14:10) 0.7 (00:00) 5.4 5.28 (06:30) 3.61 (03:30) 0 0 0 0 0
30-12-2019 -- (--) -- (--) -- -- (--) -- (--) -- 0 0 0 --

Gráficas

Temp. máximas Temp. mínimas Temp. medias Precipitaciones Rachas de viento máximas Velocidades máximas media en intervalos de 10 minutos

Datos horarios

Fecha y hora oficial Temperatura (ºC) Velocidad del viento (km/h) Dirección del viento Racha (km/h) Dirección de racha Precipitación (mm) Presión (hPa) Tendencia (hPa) Humedad (%)
2020-01-17 23:00:00 7.3 0 Calma 16 Sur 0 -- -- 80
2020-01-17 22:00:00 7.4 7 Sur 16 Sur 0 -- -- 81
2020-01-17 21:00:00 6.6 5 Sur 12 Sur 0 -- -- 88
2020-01-17 20:00:00 5.6 0 Calma 5 Sudoeste 0 -- -- 91
2020-01-17 19:00:00 6.4 0 Calma 12 Sudoeste 0 -- -- 89
2020-01-17 18:00:00 7.6 6 Sudoeste 19 Sur 0 -- -- 87
2020-01-17 17:00:00 8.5 10 Sur 29 Sur 0 -- -- 82
2020-01-17 16:00:00 8.7 14 Sur 30 Sur 0 -- -- 81
2020-01-17 15:00:00 8.7 21 Sur 42 Sur 0 -- -- 78
2020-01-17 14:00:00 9.7 23 Sur 35 Sur 0 -- -- 76
2020-01-17 13:00:00 9.6 20 Sur 37 Sur 0 -- -- 80
2020-01-17 12:00:00 8.3 22 Sur 33 Sur 0 -- -- 84
2020-01-17 11:00:00 6.8 16 Sur 33 Sur 0 -- -- 88
2020-01-17 10:00:00 6.6 18 Sur 36 Sur 0 -- -- 87
2020-01-17 09:00:00 6.1 19 Sur 41 Sudoeste 0 -- -- 90
2020-01-17 08:00:00 5.8 16 Sur 50 Sur 1.4 -- -- 92
2020-01-17 07:00:00 7.7 17 Sur 32 Sur 0 -- -- 87
2020-01-17 06:00:00 7.4 14 Sur 33 Sur 0 -- -- 90
2020-01-17 05:00:00 7.6 18 Sur 33 Sur 0.2 -- -- 90
2020-01-17 04:00:00 8 19 Sur 40 Sur 0 -- -- 87
2020-01-17 03:00:00 7.9 15 Sur 40 Sur 0 -- -- 89
2020-01-17 02:00:00 7.2 17 Sur 48 Sur 0.6 -- -- 91
2020-01-17 01:00:00 9.9 29 Sur 49 Sur 0 -- -- 82
2020-01-17 00:00:00 10.1 26 Sur 56 Sudoeste 0 -- -- 80
2020-01-16 23:00:00 10.1 35 Sur 60 Sur 0 -- -- 79
2020-01-16 22:00:00 10 28 Sur 64 Sur 0 -- -- 82
2020-01-16 21:00:00 10.1 33 Sur 56 Sur 0 -- -- 84
2020-01-16 20:00:00 9 34 Sur 57 Sur 3.2 -- -- 94
2020-01-16 19:00:00 7.7 31 Sur 59 Sur 10 -- -- 95
2020-01-16 18:00:00 10.6 33 Sur 59 Sur 2.6 -- -- 89
2020-01-16 17:00:00 12.3 28 Sur 77 Sur 0 -- -- 75
2020-01-16 16:00:00 15.2 45 Sur 82 Sur 0 -- -- 57
2020-01-16 15:00:00 15.5 55 Sur 98 Sur 0 -- -- 60
2020-01-16 14:00:00 16.2 60 Sur 102 Sur 0 -- -- 59
2020-01-16 13:00:00 17.1 52 Sur 102 Sur 0 -- -- 55
2020-01-16 12:00:00 16.9 53 Sur 99 Sur 0 -- -- 57
2020-01-16 11:00:00 16.3 49 Sur 96 Sur 0 -- -- 59
2020-01-16 10:00:00 15.8 51 Sur 93 Sur 0 -- -- 59
2020-01-16 09:00:00 15.4 50 Sur 83 Sur 0 -- -- 64
2020-01-16 08:00:00 15.2 45 Sur 105 Sur 0 -- -- 67
2020-01-16 07:00:00 15 52 Sur 90 Sur 0 -- -- 71
2020-01-16 06:00:00 14.6 38 Sur 68 Sur 0 -- -- 74
2020-01-16 05:00:00 15.3 37 Sur 73 Sur 0 -- -- 63
2020-01-16 04:00:00 15.2 39 Sur 63 Sur 0 -- -- 61
2020-01-16 03:00:00 15.2 37 Sur 96 Sur 0 -- -- 59
2020-01-16 02:00:00 15.4 51 Sur 89 Sur 0 -- -- 60
2020-01-16 01:00:00 15.3 42 Sur 78 Sur 0 -- -- 64
2020-01-16 00:00:00 14.2 32 Sur 55 Sur 0 -- -- 69
2020-01-15 23:00:00 12.6 28 Sur 53 Sudoeste 0 -- -- 77
2020-01-15 22:00:00 7.5 3 Noroeste 24 Sur 0 -- -- 96
2020-01-15 21:00:00 6.6 5 Sur 10 Sur 0 -- -- 97
2020-01-15 20:00:00 8.1 0 Calma 8 Sur 0 -- -- 96
2020-01-15 19:00:00 8.2 6 Sur 8 Sur 0 -- -- 94
2020-01-15 18:00:00 9.3 8 Norte 13 Norte 0 -- -- 89
2020-01-15 17:00:00 12.8 6 Sur 27 Sur 0 -- -- 77
2020-01-15 16:00:00 13.1 13 Sur 27 Sur 0 -- -- 74
2020-01-15 15:00:00 12.6 13 Sur 26 Sur 0 -- -- 78
2020-01-15 14:00:00 11.6 12 Sur 23 Sur 0 -- -- 83
2020-01-15 13:00:00 10.3 13 Sur 26 Sur 0 -- -- 86
2020-01-15 12:00:00 9.9 17 Sur 24 Sur 0 -- -- 88
2020-01-15 11:00:00 9.5 14 Sur 24 Sur 0 -- -- 93
2020-01-15 10:00:00 9.4 15 Sur 26 Sur 0 -- -- 95
2020-01-15 09:00:00 9.2 7 Sudoeste 26 Sur 0 -- -- 96
2020-01-15 08:00:00 9.6 17 Sur 45 Sur 4.8 -- -- 97
2020-01-15 07:00:00 10.5 17 Sur 41 Sur 3.2 -- -- 94
2020-01-15 06:00:00 10.6 36 Sur 78 Sur 3 -- -- 91
2020-01-15 05:00:00 12.1 49 Sur 94 Sur 0.6 -- -- 81
2020-01-15 04:00:00 14.1 63 Sur 112 Sur 0 -- -- 63
2020-01-15 03:00:00 13.8 54 Sur 89 Sur 0 -- -- 67
2020-01-15 02:00:00 13.8 59 Sur 109 Sur 0 -- -- 67
2020-01-15 01:00:00 13.9 59 Sur 102 Sur 0 -- -- 65
2020-01-15 00:00:00 13.9 59 Sur 105 Sur 0 -- -- 62
2020-01-14 23:00:00 13.7 57 Sur 103 Sur 0 -- -- 61
2020-01-14 22:00:00 13.4 56 Sur 95 Sur 0 -- -- 60
2020-01-14 21:00:00 12.9 42 Sur 76 Sur 0 -- -- 64
2020-01-14 20:00:00 13.1 38 Sur 95 Sur 0 -- -- 63
2020-01-14 19:00:00 13.1 51 Sur 104 Sur 0 -- -- 62
2020-01-14 18:00:00 13 54 Sur 101 Sur 0 -- -- 65
2020-01-14 17:00:00 13.5 57 Sur 102 Sur 0 -- -- 65
2020-01-14 16:00:00 14.7 54 Sur 99 Sur 0 -- -- 57
2020-01-14 15:00:00 14.4 68 Sur 113 Sur 0 -- -- 56
2020-01-14 14:00:00 14.9 61 Sur 110 Sur 0 -- -- 53
2020-01-14 13:00:00 14.2 60 Sur 102 Sur 0 -- -- 58
2020-01-14 12:00:00 14.2 63 Sur 109 Sur 0 -- -- 58
2020-01-14 11:00:00 13.1 74 Sur 113 Sur 0 -- -- 60
2020-01-14 10:00:00 12.5 66 Sur 120 Sur 0 -- -- 64
2020-01-14 09:00:00 12.4 64 Sur 98 Sur 0 -- -- 67
2020-01-14 08:00:00 12.5 57 Sur 107 Sur 0 -- -- 65
2020-01-14 07:00:00 12.5 53 Sur 98 Sur 0 -- -- 67
2020-01-14 06:00:00 12.5 62 Sur 104 Sur 0 -- -- 67
2020-01-14 05:00:00 12.5 59 Sur 98 Sur 0 -- -- 66
2020-01-14 04:00:00 12.5 61 Sur 106 Sur 0 -- -- 66
2020-01-14 03:00:00 12.5 59 Sur 113 Sur 0 -- -- 66
2020-01-14 02:00:00 12.3 52 Sur 106 Sur 0 -- -- 68
2020-01-14 01:00:00 12.6 61 Sur 103 Sur 0 -- -- 66
2020-01-14 00:00:00 12.5 61 Sur 99 Sur 0 -- -- 67
2020-01-13 23:00:00 12.3 59 Sur 100 Sur 0 -- -- 67
2020-01-13 22:00:00 12 57 Sur 112 Sur 0 -- -- 69
2020-01-13 21:00:00 11.4 52 Sur 95 Sur 0 -- -- 69
2020-01-13 20:00:00 11.5 55 Sur 96 Sur 0 -- -- 67
2020-01-13 19:00:00 12 48 Sur 93 Sur 0 -- -- 63
2020-01-13 18:00:00 12.2 43 Sur 82 Sur 0 -- -- 59
2020-01-13 17:00:00 13.3 40 Sur 75 Sudeste 0 -- -- 51
2020-01-13 16:00:00 14.3 44 Sur 71 Sur 0 -- -- 44
2020-01-13 15:00:00 13.6 45 Sur 71 Sur 0 -- -- 39
2020-01-13 14:00:00 13.7 38 Sur 67 Sur 0 -- -- 43
2020-01-13 13:00:00 13.5 31 Sur 66 Sudoeste 0 -- -- 58
2020-01-13 12:00:00 13.4 25 Sur 46 Sur 0 -- -- 62
2020-01-13 11:00:00 11.4 18 Sur 30 Sur 0 -- -- 73
2020-01-13 10:00:00 8.3 16 Sur 27 Sur 0 -- -- 84
2020-01-13 09:00:00 8.1 8 Sur 20 Sur 0 -- -- 85
2020-01-13 08:00:00 8.8 10 Sur 19 Sur 0 -- -- 84
2020-01-13 07:00:00 9.2 6 Sudoeste 21 Sur 0 -- -- 83
2020-01-13 06:00:00 8.6 9 Sur 19 Sur 0 -- -- 83
2020-01-13 05:00:00 10.1 4 Sur 28 Sur 0 -- -- 79
2020-01-13 04:00:00 10.7 13 Sur 30 Sur 0 -- -- 76
2020-01-13 03:00:00 10.3 16 Sur 31 Sur 0 -- -- 79
2020-01-13 02:00:00 9.3 8 Sur 20 Sur 0 -- -- 85
2020-01-13 01:00:00 9 4 Sudoeste 17 Sur 0 -- -- 85
2020-01-13 00:00:00 9.1 11 Sur 15 Sur 0 -- -- 87
2020-01-12 23:00:00 9.3 7 Sur 14 Sur 0 -- -- 85
2020-01-12 22:00:00 9.8 6 Sur 17 Sur 0 -- -- 83
2020-01-12 21:00:00 8.9 7 Sur 14 Sur 0 -- -- 87
2020-01-12 20:00:00 9.6 8 Sur 10 Sudeste 0 -- -- 84
2020-01-12 19:00:00 9.8 3 Sur 10 Norte 0 -- -- 83
2020-01-12 18:00:00 10.7 2 Norte 5 Noroeste 0 -- -- 76
2020-01-12 17:00:00 13.6 3 Norte 15 Sur 0 -- -- 64
2020-01-12 16:00:00 15.5 6 Sur 16 Sur 0 -- -- 59
2020-01-12 15:00:00 13.7 13 Sur 19 Sur 0 -- -- 61
2020-01-12 14:00:00 13.3 13 Sur 22 Sur 0 -- -- 59
2020-01-12 13:00:00 11.6 14 Sur 24 Sur 0 -- -- 64
2020-01-12 12:00:00 8.6 17 Sur 26 Sur 0 -- -- 71
2020-01-12 11:00:00 7.6 12 Sur 22 Sur 0 -- -- 73
2020-01-12 10:00:00 5.8 12 Sur 24 Sur 0 -- -- 78
2020-01-12 09:00:00 6 15 Sur 24 Sur 0 -- -- 76
2020-01-12 08:00:00 5.9 15 Sur 24 Sur 0 -- -- 76
2020-01-12 07:00:00 5.2 12 Sur 20 Sur 0 -- -- 77
2020-01-12 06:00:00 5.1 13 Sur 21 Sur 0 -- -- 78
2020-01-12 05:00:00 4.9 12 Sur 30 Sur 0 -- -- 81
2020-01-12 04:00:00 6 19 Sur 30 Sur 0 -- -- 78
2020-01-12 03:00:00 5.7 14 Sur 36 Sudoeste 0 -- -- 76
2020-01-12 02:00:00 7.8 21 Sur 46 Sur 0 -- -- 67
2020-01-12 01:00:00 9.4 30 Sur 45 Sur 0 -- -- 65
2020-01-12 00:00:00 6.5 19 Sur 32 Sur 0 -- -- 83
2020-01-11 23:00:00 5 15 Sur 24 Sur 0 -- -- 90
2020-01-11 22:00:00 4.5 5 Sur 9 Sur 0 -- -- 91
2020-01-11 21:00:00 5.2 4 Sur 6 Sur 0 -- -- 88
2020-01-11 20:00:00 6 3 Sur 5 Sur 0 -- -- 88
2020-01-11 19:00:00 6.7 2 Norte 10 Norte 0 -- -- 89
2020-01-11 18:00:00 9.3 3 Nordeste 10 Sur 0 -- -- 73
2020-01-11 17:00:00 11.7 10 Sur 18 Sudoeste 0 -- -- 64
2020-01-11 16:00:00 13.1 12 Sur 24 Sur 0 -- -- 57
2020-01-11 15:00:00 12.9 15 Sur 26 Sur 0 -- -- 58
2020-01-11 14:00:00 11.6 14 Sur 27 Sur 0 -- -- 69
2020-01-11 13:00:00 8.6 13 Sur 22 Sudoeste 0 -- -- 81
2020-01-11 12:00:00 5.1 13 Sudoeste 24 Sudoeste 0 -- -- 91
2020-01-11 11:00:00 5.2 12 Sudoeste 19 Sur 0 -- -- 89
2020-01-11 10:00:00 4.4 11 Sudoeste 24 Sur 0 -- -- 93
2020-01-11 09:00:00 3.6 12 Sudoeste 21 Sur 0 -- -- 96
2020-01-11 08:00:00 3.8 10 Sudoeste 19 Sur 0 -- -- 97
2020-01-11 07:00:00 3.1 7 Sudoeste 17 Sur 0 -- -- 98
2020-01-11 06:00:00 3.1 7 Sur 13 Sur 0 -- -- 98
2020-01-11 05:00:00 3.1 7 Sur 12 Sur 0 -- -- 98
2020-01-11 04:00:00 3.4 6 Sur 14 Sur 0 -- -- 98
2020-01-11 03:00:00 3.5 7 Sur 12 Sur 0 -- -- 99
2020-01-11 02:00:00 3.3 6 Sur 10 Sur 0 -- -- 99
2020-01-11 01:00:00 3.6 5 Sur 9 Sudoeste 0 -- -- 99
2020-01-11 00:00:00 4 4 Sur 8 Sur 0 -- -- 99
2020-01-10 23:00:00 4 5 Sur 8 Sur 0 -- -- 99
2020-01-10 22:00:00 4.5 0 Calma 5 Sur 0 -- -- 98
2020-01-10 21:00:00 4.8 2 Sur 5 Sur 0 -- -- 97
2020-01-10 20:00:00 5.4 3 Sur 4 Sur 0 -- -- 96
2020-01-10 19:00:00 6.2 0 Calma 13 Norte 0 -- -- 96
2020-01-10 18:00:00 7.2 5 Noroeste 11 Norte 0 -- -- 94
2020-01-10 17:00:00 8.6 7 Norte 15 Norte 0 -- -- 92
2020-01-10 16:00:00 8.9 11 Norte 21 Norte 0 -- -- 92
2020-01-10 15:00:00 9.2 8 Noroeste 15 Nordeste 0 -- -- 95
2020-01-10 14:00:00 8.8 8 Norte 13 Norte 0 -- -- 94
2020-01-10 13:00:00 8.6 8 Norte 14 Norte 0 -- -- 96
2020-01-10 12:00:00 7.6 3 Nordeste 9 Norte -- -- -- 99
2020-01-10 11:00:00 7.6 2 Sur 5 Sur -- -- -- 100
2020-01-10 10:00:00 6.1 3 Sur 7 Sur 0 -- -- 100
2020-01-10 09:00:00 6.1 3 Sur 6 Sudoeste 0 -- -- 100
2020-01-10 08:00:00 6.1 4 Sur 5 Sur 0.2 -- -- 99
2020-01-10 07:00:00 6 3 Sur 9 Sudeste 0 -- -- 98
2020-01-10 06:00:00 6.1 0 Calma 7 Sur 0.6 -- -- 97
2020-01-10 05:00:00 5.7 4 Sur 8 Sur 0 -- -- 97
2020-01-10 04:00:00 6.1 4 Sur 10 Sudeste 0.4 -- -- 95
2020-01-10 03:00:00 6.1 5 Sur 13 Este 0.2 -- -- 92
2020-01-10 02:00:00 6.7 6 Sur 16 Sur 0 -- -- 89
2020-01-10 01:00:00 6.8 8 Sur 17 Sur 0 -- -- 89
2020-01-10 00:00:00 7.3 9 Sur 23 Sur 0 -- -- 90
2020-01-09 23:00:00 7.7 10 Sur 26 Sur 0 -- -- 88
2020-01-09 22:00:00 8 9 Sur 23 Sur 0 -- -- 85
2020-01-09 21:00:00 8.3 11 Sur 29 Sur 0 -- -- 83
2020-01-09 20:00:00 8.3 15 Sur 39 Sur 0 -- -- 83
2020-01-09 19:00:00 8.4 12 Sur 32 Sur 0 -- -- 80
2020-01-09 18:00:00 8.9 14 Sur 40 Sur 0 -- -- 77
2020-01-09 17:00:00 9.6 19 Sur 41 Sur 0 -- -- 79
2020-01-09 16:00:00 10.1 23 Sur 52 Sur 0 -- -- 77
2020-01-09 15:00:00 10.1 23 Sur 55 Sur 0 -- -- 83
2020-01-09 14:00:00 12.1 22 Sur 68 Sur 2.8 -- -- 83
2020-01-09 13:00:00 14.9 35 Sur 65 Sur 0 -- -- 76
2020-01-09 12:00:00 15 37 Sur 81 Sur 0 -- -- 77
2020-01-09 11:00:00 14.9 48 Sur 76 Sur 0 -- -- 76
2020-01-09 10:00:00 14.6 40 Sur 71 Sur 0 -- -- 76
2020-01-09 09:00:00 14.4 32 Sur 60 Sur 0 -- -- 76
2020-01-09 08:00:00 14.1 38 Sur 66 Sur 0 -- -- 79
2020-01-09 07:00:00 14 27 Sur 58 Sur 0 -- -- 81
2020-01-09 06:00:00 14.1 36 Sur 58 Sur 0 -- -- 83
2020-01-09 05:00:00 14.1 21 Sur 42 Sur 0 -- -- 83
2020-01-09 04:00:00 13.4 18 Sur 32 Sur 0 -- -- 85
2020-01-09 03:00:00 14 20 Sur 40 Sur 0 -- -- 82
2020-01-09 02:00:00 13.7 18 Sur 35 Sur 0 -- -- 83
2020-01-09 01:00:00 13.9 15 Sur 38 Sur 0 -- -- 84
2020-01-09 00:00:00 13.9 15 Sur 40 Sur 0 -- -- 84
2020-01-08 23:00:00 13.7 23 Sur 45 Sur 0 -- -- 86
2020-01-08 22:00:00 13.2 14 Sur 37 Sur 0 -- -- 91
2020-01-08 21:00:00 14.1 12 Sur 26 Sur 0 -- -- 85
2020-01-08 20:00:00 13.2 10 Sur 22 Sur 0 -- -- 88
2020-01-08 19:00:00 12.5 12 Sur 24 Sur 0 -- -- 88
2020-01-08 18:00:00 13.6 10 Sur 21 Sur 0 -- -- 85
2020-01-08 17:00:00 15.4 9 Sur 28 Sur 0 -- -- 78
2020-01-08 16:00:00 16.8 17 Sur 29 Sur 0 -- -- 71
2020-01-08 15:00:00 17.3 16 Sur 28 Sur 0 -- -- 71
2020-01-08 14:00:00 15.5 16 Sur 27 Sur 0 -- -- 76
2020-01-08 13:00:00 16.4 12 Sur 22 Sur 0 -- -- 73
2020-01-08 12:00:00 14.2 12 Sur 18 Sur 0 -- -- 75
2020-01-08 11:00:00 10.8 10 Sudoeste 20 Sudoeste 0 -- -- 76
2020-01-08 10:00:00 10.1 10 Sur 20 Sur 0 -- -- 79
2020-01-08 09:00:00 9.4 13 Sur 19 Sur 0 -- -- 77
2020-01-08 08:00:00 10.1 10 Sur 17 Sur 0 -- -- 75
2020-01-08 07:00:00 10.3 12 Sur 19 Sudoeste 0 -- -- 72
2020-01-08 06:00:00 10.3 11 Sur 16 Sudoeste 0 -- -- 67
2020-01-08 05:00:00 10.8 8 Sur 22 Sur 0 -- -- 63
2020-01-08 04:00:00 10.4 12 Sur 20 Sur 0 -- -- 64
2020-01-08 03:00:00 10.5 12 Sur 22 Sur 0 -- -- 64
2020-01-08 02:00:00 10.8 11 Sur 17 Sur 0 -- -- 64
2020-01-08 01:00:00 10.1 12 Sur 21 Sur 0 -- -- 64
2020-01-08 00:00:00 9.9 12 Sur 18 Sur 0 -- -- 65
2020-01-07 23:00:00 10.2 10 Sudoeste 18 Sudoeste 0 -- -- 63
2020-01-07 22:00:00 10.9 10 Sur 17 Sur 0 -- -- 60
2020-01-07 21:00:00 10.3 6 Sur 15 Sudoeste 0 -- -- 62
2020-01-07 20:00:00 9.6 9 Sur 15 Sudoeste 0 -- -- 66
2020-01-07 19:00:00 9.8 7 Sur 19 Sur 0 -- -- 69
2020-01-07 18:00:00 11 4 Sur 13 Sudeste 0 -- -- 66
2020-01-07 17:00:00 13.3 8 Sudoeste 19 Sur 0 -- -- 57
2020-01-07 16:00:00 14.7 10 Sur 15 Sur 0 -- -- 51
2020-01-07 15:00:00 14.3 10 Sur 21 Sur 0 -- -- 54
2020-01-07 14:00:00 12.8 12 Sur 25 Sur 0 -- -- 56
2020-01-07 13:00:00 11.3 15 Sur 24 Sudeste 0 -- -- 59
2020-01-07 12:00:00 10.4 14 Sur 21 Sur 0 -- -- 59
2020-01-07 11:00:00 7.8 12 Sur 20 Sudoeste 0 -- -- 66
2020-01-07 10:00:00 6.1 12 Sur 25 Sur 0 -- -- 68
2020-01-07 09:00:00 5.4 17 Sur 33 Sur 0 -- -- 72
2020-01-07 08:00:00 5.4 17 Sudoeste 30 Sur 0 -- -- 74
2020-01-07 07:00:00 5.2 16 Sur 28 Sur 0 -- -- 77
2020-01-07 06:00:00 5.4 19 Sur 29 Sur 0 -- -- 77
2020-01-07 05:00:00 5.7 19 Sur 27 Sur 0 -- -- 77
2020-01-07 04:00:00 5.8 17 Sur 27 Sur 0 -- -- 79
2020-01-07 03:00:00 5.6 13 Sur 22 Sur 0 -- -- 81
2020-01-07 02:00:00 5.7 14 Sur 23 Sur 0 -- -- 83
2020-01-07 01:00:00 5.5 11 Sur 16 Sur 0 -- -- 84
2020-01-07 00:00:00 5.3 5 Sur 14 Sur 0 -- -- 85
2020-01-06 23:00:00 5.7 9 Sur 17 Sur 0 -- -- 84
2020-01-06 22:00:00 5.9 4 Sur 12 Sur 0 -- -- 81
2020-01-06 21:00:00 6.5 8 Sur 16 Sur 0 -- -- 81
2020-01-06 20:00:00 6.7 10 Sur 19 Sur 0 -- -- 85
2020-01-06 19:00:00 7.5 14 Sur 28 Sur 0 -- -- 83
2020-01-06 18:00:00 9 14 Sur 23 Sur 0 -- -- 79
2020-01-06 17:00:00 10.6 14 Sur 23 Sur 0 -- -- 71
2020-01-06 16:00:00 12.7 12 Sudoeste 39 Sur 0 -- -- 59
2020-01-06 15:00:00 12.1 26 Sur 57 Sur 0 -- -- 60
2020-01-06 14:00:00 9 38 Sur 51 Sur 0 -- -- 72
2020-01-06 13:00:00 8.1 23 Sur 38 Sur 0 -- -- 77
2020-01-06 12:00:00 6.7 17 Sur 30 Sur 0 -- -- 84
2020-01-06 11:00:00 6.1 15 Sur 23 Sur 0 -- -- 84
2020-01-06 10:00:00 3.2 9 Sudoeste 25 Sur 0 -- -- 93